Impacts TAF Board INFO
FOR SITUATIONAL AWARENESS. NOT TO BE USED FOR FLIGHT PLANNING PURPOSES.
IDs:

KLAS - Las Vegas/McCarran I, NV, US

Issued at 2046 UTC 13 Dec 2017
Updated at 2051 UTC 13 Dec 2017
Potential Impact None Slight Moderate High
Time1956Z 13/21Z 13/22Z 13/23Z 14/00Z 14/01Z 14/02Z 14/03Z 14/04Z 14/05Z 14/06Z 14/07Z 14/08Z 14/09Z>>
Type OBS PRVL PRVL PRVL PRVL PRVL PRVL PRVL PRVL PRVL PRVL PRVL PRVL PRVL
VIS 10 >6 >6 >6 >6 >6 >6 >6 >6 >6 >6 >6 >6 >6
CIG -- -- -- -- -- -- -- -- -- -- -- -- -- --
Cover CLR SKC SKC SKC SKC SKC SCT SCT SCT SCT SCT SCT SCT SCT
FltCat VFR VFR VFR VFR VFR VFR VFR VFR VFR VFR VFR VFR VFR VFR
WX -- -- -- -- -- -- -- -- -- -- -- -- -- --
WDir VRB VRB VRB VRB VRB VRB 230 230 230 230 230 230 230 230
WSpd 0 5 5 5 5 5 6 6 6 6 6 6 6 6
WGst -- -- -- -- -- -- -- -- -- -- -- -- -- --

Raw TAF
KLAS 132046Z 1321/1424 VRB05KT P6SM SKC
  FM140200 23006KT P6SM SCT250
  FM141000 35012G20KT P6SM SKC


Raw METAR
KLAS 131956Z 00000KT 10SM CLR 19/M14 A3008 RMK AO2 SLP177 T01891139
KLAS 131856Z 00000KT 10SM CLR 17/M14 A3012 RMK AO2 SLP194 T01671139
KLAS 131756Z 00000KT 10SM CLR 15/M14 A3015 RMK AO2 SLP206 T01501139 10150 20056 50002

METAR Board
Radar Display
Forecast Discussion

FOR SITUATIONAL AWARENESS. NOT TO BE USED FOR FLIGHT PLANNING PURPOSES.